createdAt,value
2023-01-31T00:01:24.578Z,3.00
2023-01-31T00:03:56.152Z,3.00
2023-01-31T00:06:29.735Z,3.00
2023-01-31T00:08:57.795Z,2.90
2023-01-31T00:11:26.287Z,2.80
2023-01-31T00:13:53.015Z,2.70
2023-01-31T00:16:20.649Z,2.60
2023-01-31T00:18:47.843Z,2.60
2023-01-31T00:21:17.194Z,2.50
2023-01-31T00:23:44.899Z,2.40
2023-01-31T00:26:12.480Z,2.30
2023-01-31T00:28:39.510Z,2.30
2023-01-31T00:31:06.967Z,2.30
2023-01-31T00:33:38.107Z,2.30
2023-01-31T00:36:09.827Z,2.40
2023-01-31T00:38:36.881Z,2.30
2023-01-31T00:41:04.664Z,2.40
2023-01-31T00:43:32.587Z,2.30
2023-01-31T00:45:59.499Z,2.30
2023-01-31T00:48:26.299Z,2.30
2023-01-31T00:50:53.080Z,2.30
2023-01-31T00:53:23.742Z,2.30
2023-01-31T00:55:51.992Z,2.20
2023-01-31T00:58:19.108Z,2.20
2023-01-31T01:00:46.375Z,2.10
2023-01-31T01:03:13.637Z,2.10
2023-01-31T01:05:40.727Z,2.10
2023-01-31T01:08:07.339Z,2.10
2023-01-31T01:10:34.396Z,2.10
2023-01-31T01:13:01.634Z,2.10
2023-01-31T01:15:28.433Z,2.20
2023-01-31T01:17:56.072Z,2.20
2023-01-31T01:20:22.929Z,2.20
2023-01-31T01:22:49.492Z,2.20
2023-01-31T01:25:16.168Z,2.20
2023-01-31T01:27:42.735Z,2.20
2023-01-31T01:30:10.037Z,2.20
2023-01-31T01:32:36.601Z,2.20
2023-01-31T01:35:03.980Z,2.20
2023-01-31T01:37:30.601Z,2.20
2023-01-31T01:39:57.206Z,2.00
2023-01-31T01:42:26.002Z,1.90
2023-01-31T01:44:54.892Z,1.90
2023-01-31T01:47:30.410Z,1.80
2023-01-31T01:50:13.303Z,1.80
2023-01-31T01:52:47.397Z,1.80
2023-01-31T01:55:45.959Z,1.80
2023-01-31T01:58:47.178Z,1.70
2023-01-31T02:01:16.726Z,1.70
2023-01-31T02:03:45.328Z,1.60
2023-01-31T02:06:12.057Z,1.70
2023-01-31T02:08:41.852Z,1.60
2023-01-31T02:11:23.180Z,1.60
2023-01-31T02:13:53.438Z,1.60
2023-01-31T02:16:20.172Z,1.50
2023-01-31T02:18:48.212Z,1.50
2023-01-31T02:21:45.884Z,1.60
2023-01-31T02:24:30.546Z,1.50
2023-01-31T02:27:18.480Z,1.40
2023-01-31T02:30:18.084Z,1.50
2023-01-31T02:32:59.718Z,1.50
2023-01-31T02:35:34.537Z,1.50
2023-01-31T02:38:13.428Z,1.60
2023-01-31T02:40:51.773Z,1.70
2023-01-31T02:44:00.273Z,1.70
2023-01-31T02:46:42.129Z,1.80
2023-01-31T02:49:34.456Z,1.90
2023-01-31T02:52:16.858Z,1.90
2023-01-31T02:55:32.614Z,1.90
2023-01-31T02:58:02.129Z,2.00
2023-01-31T03:00:32.114Z,2.00
2023-01-31T03:02:58.773Z,2.10
2023-01-31T03:05:26.149Z,2.10
2023-01-31T03:07:56.250Z,2.00
2023-01-31T03:11:02.207Z,2.00
2023-01-31T03:13:36.630Z,2.00
2023-01-31T03:16:43.233Z,2.00
2023-01-31T03:19:34.325Z,2.00
2023-01-31T03:22:07.384Z,2.00
2023-01-31T03:24:35.132Z,1.90
2023-01-31T03:27:02.688Z,2.00
2023-01-31T03:29:34.418Z,2.00
2023-01-31T03:32:21.973Z,2.00
2023-01-31T03:34:48.933Z,2.10
2023-01-31T03:37:42.329Z,2.10
2023-01-31T03:40:16.309Z,2.10
2023-01-31T03:42:54.897Z,2.00
2023-01-31T03:45:30.919Z,1.90
2023-01-31T03:47:59.338Z,1.90
2023-01-31T03:50:31.056Z,1.90
2023-01-31T03:53:11.674Z,1.80
2023-01-31T03:55:53.274Z,1.70
2023-01-31T03:58:24.242Z,1.70
2023-01-31T04:00:52.865Z,1.60
2023-01-31T04:03:52.438Z,1.50
2023-01-31T04:06:19.099Z,1.50
2023-01-31T04:08:45.807Z,1.40
2023-01-31T04:11:14.116Z,1.30
2023-01-31T04:13:42.072Z,1.30
2023-01-31T04:16:09.260Z,1.20
2023-01-31T04:18:38.032Z,1.30
2023-01-31T04:21:05.631Z,1.30
2023-01-31T04:23:32.530Z,1.30
2023-01-31T04:25:59.102Z,1.20
2023-01-31T04:28:25.687Z,1.20
2023-01-31T04:30:56.546Z,1.00
2023-01-31T04:33:23.602Z,1.10
2023-01-31T04:35:53.260Z,1.00
2023-01-31T04:38:19.855Z,1.00
2023-01-31T04:40:46.492Z,0.90
2023-01-31T04:43:13.070Z,0.90
2023-01-31T04:45:39.687Z,0.90
2023-01-31T04:48:06.636Z,0.90
2023-01-31T04:50:33.292Z,1.00
2023-01-31T04:52:59.878Z,1.10
2023-01-31T04:55:27.532Z,1.20
2023-01-31T04:57:54.436Z,1.30
2023-01-31T05:00:21.260Z,1.40
2023-01-31T05:02:47.907Z,1.40
2023-01-31T05:05:14.538Z,1.40
2023-01-31T05:07:41.164Z,1.40
2023-01-31T05:10:08.802Z,1.40
2023-01-31T05:12:35.406Z,1.30
2023-01-31T05:15:02.248Z,1.20
2023-01-31T05:17:29.915Z,1.10
2023-01-31T05:19:58.160Z,1.10
2023-01-31T05:22:25.498Z,1.00
2023-01-31T05:24:52.395Z,1.00
2023-01-31T05:27:19.828Z,1.00
2023-01-31T05:29:46.499Z,0.90
2023-01-31T05:32:14.625Z,0.90
2023-01-31T05:34:41.274Z,0.90
2023-01-31T05:37:07.923Z,0.80
2023-01-31T05:39:34.627Z,0.70
2023-01-31T05:42:01.926Z,0.50
2023-01-31T05:44:28.645Z,0.40
2023-01-31T05:46:55.521Z,0.30
2023-01-31T05:49:22.100Z,0.30
2023-01-31T05:51:48.681Z,0.10
2023-01-31T05:54:15.237Z,0.00
2023-01-31T05:56:41.834Z,-0.10
2023-01-31T05:59:08.605Z,-0.20
2023-01-31T06:01:35.177Z,-0.20
2023-01-31T06:04:02.113Z,-0.10
2023-01-31T06:06:28.692Z,-0.10
2023-01-31T06:08:56.529Z,0.10
2023-01-31T06:11:25.089Z,0.10
2023-01-31T06:13:51.741Z,0.20
2023-01-31T06:16:18.441Z,0.30
2023-01-31T06:18:45.040Z,0.30
2023-01-31T06:21:12.141Z,0.30
2023-01-31T06:23:38.933Z,0.30
2023-01-31T06:26:05.608Z,0.20
2023-01-31T06:28:32.145Z,0.20
2023-01-31T06:30:59.130Z,0.20
2023-01-31T06:33:42.311Z,0.30
2023-01-31T06:36:11.191Z,0.40
2023-01-31T06:38:37.804Z,0.30
2023-01-31T06:41:04.605Z,0.30
2023-01-31T06:43:32.818Z,0.30
2023-01-31T06:45:59.488Z,0.30
2023-01-31T06:48:26.078Z,0.30
2023-01-31T06:50:52.669Z,0.30
2023-01-31T06:53:19.211Z,0.30
2023-01-31T06:55:45.769Z,0.40
2023-01-31T06:58:12.375Z,0.30
2023-01-31T07:00:38.949Z,0.30
2023-01-31T07:03:05.546Z,0.30
2023-01-31T07:05:32.327Z,0.30
2023-01-31T07:07:58.905Z,0.30
2023-01-31T07:10:25.528Z,0.40
2023-01-31T07:12:52.153Z,0.50
2023-01-31T07:15:19.065Z,0.60
2023-01-31T07:17:45.899Z,0.60
2023-01-31T07:20:12.953Z,0.60
2023-01-31T07:22:39.568Z,0.60
2023-01-31T07:25:06.507Z,0.60
2023-01-31T07:27:33.138Z,0.60
2023-01-31T07:29:59.870Z,0.60
2023-01-31T07:32:30.210Z,0.70
2023-01-31T07:34:57.049Z,0.80
2023-01-31T07:37:23.659Z,0.80
2023-01-31T07:39:50.648Z,0.90
2023-01-31T07:42:17.302Z,0.80
2023-01-31T07:44:43.947Z,0.90
2023-01-31T07:47:10.496Z,1.00
2023-01-31T07:49:37.053Z,1.10
2023-01-31T07:52:03.681Z,1.10
2023-01-31T07:54:30.731Z,1.20
2023-01-31T07:56:57.352Z,1.30
2023-01-31T07:59:23.937Z,1.30
2023-01-31T08:02:29.473Z,1.40
2023-01-31T08:04:56.236Z,1.40
2023-01-31T08:07:22.959Z,1.50
2023-01-31T08:09:50.234Z,1.60
2023-01-31T08:12:17.187Z,1.70
2023-01-31T08:14:44.066Z,1.70
2023-01-31T08:17:11.149Z,1.90
2023-01-31T08:19:38.362Z,1.90
2023-01-31T08:22:05.330Z,2.00
2023-01-31T08:24:32.778Z,2.10
2023-01-31T08:27:00.250Z,2.20
2023-01-31T08:29:27.292Z,2.20
2023-01-31T08:31:53.974Z,2.40
2023-01-31T08:34:21.156Z,2.50
2023-01-31T08:36:47.715Z,2.60
2023-01-31T08:39:14.338Z,2.50
2023-01-31T08:41:40.941Z,2.60
2023-01-31T08:44:07.574Z,2.60
2023-01-31T08:46:36.618Z,2.50
2023-01-31T08:49:06.337Z,2.50
2023-01-31T08:51:33.239Z,2.60
2023-01-31T08:53:59.808Z,2.60
2023-01-31T08:56:27.809Z,2.70
2023-01-31T08:58:55.270Z,2.90
2023-01-31T09:01:22.688Z,3.00
2023-01-31T09:03:56.785Z,3.10
2023-01-31T09:06:26.831Z,3.20
2023-01-31T09:08:54.743Z,3.20
2023-01-31T09:11:22.035Z,3.40
2023-01-31T09:13:51.487Z,3.40
2023-01-31T09:16:19.391Z,3.60
2023-01-31T09:18:46.004Z,3.70
2023-01-31T09:21:15.960Z,4.00
2023-01-31T09:23:43.070Z,4.10
2023-01-31T09:26:14.071Z,4.30
2023-01-31T09:28:45.384Z,4.40
2023-01-31T09:31:14.898Z,4.50
2023-01-31T09:33:42.108Z,4.60
2023-01-31T09:36:11.247Z,4.60
2023-01-31T09:38:38.253Z,4.60
2023-01-31T09:41:13.941Z,4.70
2023-01-31T09:43:44.744Z,4.70
2023-01-31T09:46:17.810Z,4.70
2023-01-31T09:48:48.511Z,4.60
2023-01-31T09:51:16.933Z,4.60
2023-01-31T09:53:44.963Z,4.70
2023-01-31T09:56:24.496Z,4.70
2023-01-31T09:59:14.588Z,4.90
2023-01-31T10:02:00.688Z,4.70
2023-01-31T10:05:01.530Z,4.80
2023-01-31T10:07:36.186Z,4.80
2023-01-31T10:10:18.682Z,4.80
2023-01-31T10:12:57.827Z,4.70
2023-01-31T10:15:32.837Z,4.70
2023-01-31T10:18:05.907Z,4.90
2023-01-31T10:20:39.288Z,4.90
2023-01-31T10:23:15.345Z,5.00
2023-01-31T10:26:03.641Z,5.10
2023-01-31T10:28:49.563Z,4.90
2023-01-31T10:32:06.009Z,4.90
2023-01-31T10:34:50.730Z,5.10
2023-01-31T10:37:39.855Z,5.30
2023-01-31T10:40:15.010Z,5.40
2023-01-31T10:42:45.440Z,5.30
2023-01-31T10:45:18.232Z,5.30
2023-01-31T10:47:52.089Z,5.20
2023-01-31T10:50:43.795Z,5.30
2023-01-31T10:53:16.390Z,5.40
2023-01-31T10:55:52.155Z,5.40
2023-01-31T10:58:22.523Z,5.40
2023-01-31T11:00:49.665Z,5.20
2023-01-31T11:03:16.805Z,5.10
2023-01-31T11:05:50.599Z,5.10
2023-01-31T11:08:40.083Z,5.10
2023-01-31T11:11:12.160Z,5.10
2023-01-31T11:13:39.416Z,5.10
2023-01-31T11:16:12.455Z,5.20
2023-01-31T11:18:46.189Z,5.10
2023-01-31T11:21:24.049Z,5.10
2023-01-31T11:23:52.319Z,5.30
2023-01-31T11:26:34.598Z,5.50
2023-01-31T11:29:07.200Z,5.60
2023-01-31T11:31:38.228Z,5.50
2023-01-31T11:34:18.030Z,5.70
2023-01-31T11:36:47.839Z,5.90
2023-01-31T11:39:37.879Z,6.10
2023-01-31T11:42:13.171Z,6.00
2023-01-31T11:45:00.949Z,6.00
2023-01-31T11:47:45.563Z,5.90
2023-01-31T11:50:31.182Z,6.00
2023-01-31T11:53:00.211Z,6.00
2023-01-31T23:30:46.574Z,3.90
2023-01-31T23:33:13.669Z,3.90
2023-01-31T23:35:40.396Z,3.80
2023-01-31T23:38:06.976Z,3.90
2023-01-31T23:40:33.872Z,3.90
2023-01-31T23:43:00.485Z,3.90
2023-01-31T23:45:27.151Z,3.80
2023-01-31T23:47:53.936Z,3.80
2023-01-31T23:50:20.973Z,3.80
2023-01-31T23:52:47.716Z,3.80
2023-01-31T23:55:14.403Z,3.70
2023-01-31T23:57:40.973Z,3.70
